Sunburst, Montana
Current Conditions -  °F | °C
As of 1:56 AM on Friday 24 Oct 2014 (Local Time) from KCTB Reporting Station
Clear Clear  
Wind Chill: 36°   Ceiling: Unl
Heat Index: 46°   Visibility: 10mi
Dew Point: 33°   Wind: 37mph
Humidity: 61%   Direction: 260°W
Pressure: 29.81"   Gusts: 46mph
Location:  48.88°N, 111.91°W
Report Text: KCTB 240756Z AUTO 26032G40KT 10SM CLR 08/01 A2981 RMK AO2 PK WND 26044/0720 SLP085 T00780006
Loading
Personal Weather Stations






























Interactive Weather Map
Tropical Storm Tracking
New forecast layout! Learn more

10-Day Weather Forecast

Advertisements
Track Severe Weather on mobile